sensor_id;sensor_type;location;lat;lon;timestamp;P1;durP1;ratioP1;P2;durP2;ratioP2
66272;SDS011;58450;52.150;4.466;2024-01-30T00:00:48;17.35;;;11.05;;
66272;SDS011;58450;52.150;4.466;2024-01-30T00:05:17;15.93;;;10.50;;
66272;SDS011;58450;52.150;4.466;2024-01-30T00:09:48;17.50;;;10.77;;
66272;SDS011;58450;52.150;4.466;2024-01-30T00:14:18;19.75;;;10.25;;
66272;SDS011;58450;52.150;4.466;2024-01-30T00:18:47;18.38;;;10.75;;
66272;SDS011;58450;52.150;4.466;2024-01-30T00:23:15;14.25;;;9.57;;
66272;SDS011;58450;52.150;4.466;2024-01-30T00:27:44;15.77;;;9.68;;
66272;SDS011;58450;52.150;4.466;2024-01-30T00:32:14;16.63;;;9.88;;
66272;SDS011;58450;52.150;4.466;2024-01-30T00:36:43;14.55;;;10.02;;
66272;SDS011;58450;52.150;4.466;2024-01-30T00:41:12;16.85;;;10.23;;
66272;SDS011;58450;52.150;4.466;2024-01-30T00:45:41;14.27;;;9.50;;
66272;SDS011;58450;52.150;4.466;2024-01-30T00:50:11;16.08;;;10.00;;
66272;SDS011;58450;52.150;4.466;2024-01-30T00:54:39;14.88;;;9.38;;
66272;SDS011;58450;52.150;4.466;2024-01-30T00:59:08;15.75;;;9.60;;
66272;SDS011;58450;52.150;4.466;2024-01-30T01:03:37;14.60;;;8.82;;
66272;SDS011;58450;52.150;4.466;2024-01-30T01:08:07;13.00;;;9.07;;
66272;SDS011;58450;52.150;4.466;2024-01-30T01:12:37;13.70;;;9.30;;
66272;SDS011;58450;52.150;4.466;2024-01-30T01:17:05;13.43;;;8.60;;
66272;SDS011;58450;52.150;4.466;2024-01-30T01:21:34;12.63;;;8.68;;
66272;SDS011;58450;52.150;4.466;2024-01-30T01:26:05;13.23;;;8.43;;
66272;SDS011;58450;52.150;4.466;2024-01-30T01:30:34;14.85;;;8.57;;
66272;SDS011;58450;52.150;4.466;2024-01-30T01:35:04;12.40;;;8.48;;
66272;SDS011;58450;52.150;4.466;2024-01-30T01:39:33;13.27;;;8.77;;
66272;SDS011;58450;52.150;4.466;2024-01-30T01:44:03;15.57;;;9.35;;
66272;SDS011;58450;52.150;4.466;2024-01-30T01:48:32;15.65;;;9.27;;
66272;SDS011;58450;52.150;4.466;2024-01-30T01:53:02;13.60;;;8.70;;
66272;SDS011;58450;52.150;4.466;2024-01-30T01:57:33;13.15;;;8.85;;
66272;SDS011;58450;52.150;4.466;2024-01-30T02:02:03;13.73;;;9.38;;
66272;SDS011;58450;52.150;4.466;2024-01-30T02:06:34;14.30;;;9.23;;
66272;SDS011;58450;52.150;4.466;2024-01-30T02:11:02;11.68;;;7.95;;
66272;SDS011;58450;52.150;4.466;2024-01-30T02:15:31;12.30;;;8.20;;
66272;SDS011;58450;52.150;4.466;2024-01-30T02:20:01;11.82;;;7.82;;
66272;SDS011;58450;52.150;4.466;2024-01-30T02:24:34;12.80;;;8.90;;
66272;SDS011;58450;52.150;4.466;2024-01-30T02:29:03;15.02;;;8.75;;
66272;SDS011;58450;52.150;4.466;2024-01-30T02:33:32;13.85;;;8.85;;
66272;SDS011;58450;52.150;4.466;2024-01-30T02:38:03;12.68;;;8.95;;
66272;SDS011;58450;52.150;4.466;2024-01-30T02:42:32;12.85;;;8.68;;
66272;SDS011;58450;52.150;4.466;2024-01-30T02:47:01;12.85;;;8.85;;
66272;SDS011;58450;52.150;4.466;2024-01-30T02:51:29;14.05;;;8.35;;
66272;SDS011;58450;52.150;4.466;2024-01-30T02:55:59;13.10;;;8.73;;
66272;SDS011;58450;52.150;4.466;2024-01-30T03:00:28;15.55;;;8.93;;
66272;SDS011;58450;52.150;4.466;2024-01-30T03:04:57;15.27;;;9.10;;
66272;SDS011;58450;52.150;4.466;2024-01-30T03:09:25;13.55;;;8.60;;
66272;SDS011;58450;52.150;4.466;2024-01-30T03:13:55;15.95;;;9.98;;
66272;SDS011;58450;52.150;4.466;2024-01-30T03:18:24;13.88;;;8.30;;
66272;SDS011;58450;52.150;4.466;2024-01-30T03:22:54;13.93;;;8.70;;
66272;SDS011;58450;52.150;4.466;2024-01-30T03:27:23;11.23;;;7.72;;
66272;SDS011;58450;52.150;4.466;2024-01-30T03:31:53;12.13;;;7.97;;
66272;SDS011;58450;52.150;4.466;2024-01-30T03:36:22;13.18;;;7.85;;
66272;SDS011;58450;52.150;4.466;2024-01-30T03:40:50;11.20;;;7.40;;
66272;SDS011;58450;52.150;4.466;2024-01-30T03:45:19;12.95;;;7.82;;
66272;SDS011;58450;52.150;4.466;2024-01-30T03:49:49;12.90;;;8.30;;
66272;SDS011;58450;52.150;4.466;2024-01-30T03:54:18;12.70;;;8.52;;
66272;SDS011;58450;52.150;4.466;2024-01-30T03:58:47;13.20;;;8.15;;
66272;SDS011;58450;52.150;4.466;2024-01-30T04:03:15;13.32;;;8.40;;
66272;SDS011;58450;52.150;4.466;2024-01-30T04:07:45;14.20;;;9.00;;
66272;SDS011;58450;52.150;4.466;2024-01-30T04:12:14;13.35;;;8.13;;
66272;SDS011;58450;52.150;4.466;2024-01-30T04:16:43;13.70;;;9.00;;
66272;SDS011;58450;52.150;4.466;2024-01-30T04:21:11;11.93;;;7.88;;
66272;SDS011;58450;52.150;4.466;2024-01-30T04:25:42;12.93;;;8.35;;
66272;SDS011;58450;52.150;4.466;2024-01-30T04:30:10;13.18;;;8.18;;
66272;SDS011;58450;52.150;4.466;2024-01-30T04:34:39;11.95;;;7.93;;
66272;SDS011;58450;52.150;4.466;2024-01-30T04:39:08;12.13;;;7.70;;
66272;SDS011;58450;52.150;4.466;2024-01-30T04:43:38;14.10;;;8.57;;
66272;SDS011;58450;52.150;4.466;2024-01-30T04:48:07;13.55;;;8.00;;
66272;SDS011;58450;52.150;4.466;2024-01-30T04:52:36;14.93;;;8.32;;
66272;SDS011;58450;52.150;4.466;2024-01-30T04:57:04;14.55;;;8.75;;
66272;SDS011;58450;52.150;4.466;2024-01-30T05:01:35;14.65;;;8.75;;
66272;SDS011;58450;52.150;4.466;2024-01-30T05:06:04;12.48;;;9.07;;
66272;SDS011;58450;52.150;4.466;2024-01-30T05:10:33;13.40;;;8.90;;
66272;SDS011;58450;52.150;4.466;2024-01-30T05:15:06;14.10;;;8.55;;
66272;SDS011;58450;52.150;4.466;2024-01-30T05:19:39;13.07;;;8.57;;
66272;SDS011;58450;52.150;4.466;2024-01-30T05:24:08;13.90;;;8.38;;
66272;SDS011;58450;52.150;4.466;2024-01-30T05:28:37;15.48;;;8.63;;
66272;SDS011;58450;52.150;4.466;2024-01-30T05:33:06;14.70;;;8.98;;
66272;SDS011;58450;52.150;4.466;2024-01-30T05:37:36;14.30;;;9.00;;
66272;SDS011;58450;52.150;4.466;2024-01-30T05:42:07;13.85;;;8.50;;
66272;SDS011;58450;52.150;4.466;2024-01-30T05:46:36;13.18;;;7.65;;
66272;SDS011;58450;52.150;4.466;2024-01-30T05:51:04;15.25;;;7.97;;
66272;SDS011;58450;52.150;4.466;2024-01-30T05:55:36;12.50;;;7.68;;
66272;SDS011;58450;52.150;4.466;2024-01-30T06:00:06;12.13;;;7.47;;
66272;SDS011;58450;52.150;4.466;2024-01-30T06:04:36;12.77;;;7.50;;
66272;SDS011;58450;52.150;4.466;2024-01-30T06:09:05;15.10;;;8.18;;
66272;SDS011;58450;52.150;4.466;2024-01-30T06:13:36;12.48;;;7.88;;
66272;SDS011;58450;52.150;4.466;2024-01-30T06:18:05;11.20;;;6.97;;
66272;SDS011;58450;52.150;4.466;2024-01-30T06:22:33;14.43;;;8.77;;
66272;SDS011;58450;52.150;4.466;2024-01-30T06:27:02;13.00;;;7.72;;
66272;SDS011;58450;52.150;4.466;2024-01-30T06:31:32;13.63;;;8.18;;
66272;SDS011;58450;52.150;4.466;2024-01-30T06:36:01;12.80;;;7.55;;
66272;SDS011;58450;52.150;4.466;2024-01-30T06:40:30;12.82;;;7.97;;
66272;SDS011;58450;52.150;4.466;2024-01-30T06:44:58;15.40;;;8.05;;
66272;SDS011;58450;52.150;4.466;2024-01-30T06:49:28;15.07;;;8.40;;
66272;SDS011;58450;52.150;4.466;2024-01-30T06:53:57;13.52;;;7.97;;
66272;SDS011;58450;52.150;4.466;2024-01-30T06:58:26;13.80;;;8.63;;
66272;SDS011;58450;52.150;4.466;2024-01-30T07:02:55;16.92;;;8.30;;
66272;SDS011;58450;52.150;4.466;2024-01-30T07:07:25;13.40;;;8.20;;
66272;SDS011;58450;52.150;4.466;2024-01-30T07:11:54;14.05;;;9.00;;
66272;SDS011;58450;52.150;4.466;2024-01-30T07:16:23;15.55;;;9.10;;
66272;SDS011;58450;52.150;4.466;2024-01-30T07:20:52;16.95;;;8.85;;
66272;SDS011;58450;52.150;4.466;2024-01-30T07:25:22;13.52;;;7.50;;
66272;SDS011;58450;52.150;4.466;2024-01-30T07:29:50;14.65;;;8.38;;
66272;SDS011;58450;52.150;4.466;2024-01-30T07:34:19;17.10;;;8.63;;
66272;SDS011;58450;52.150;4.466;2024-01-30T07:38:48;20.15;;;9.52;;
66272;SDS011;58450;52.150;4.466;2024-01-30T07:43:18;17.80;;;8.43;;
66272;SDS011;58450;52.150;4.466;2024-01-30T07:47:49;16.63;;;8.70;;
66272;SDS011;58450;52.150;4.466;2024-01-30T07:52:19;16.70;;;9.25;;
66272;SDS011;58450;52.150;4.466;2024-01-30T07:56:49;15.90;;;9.20;;
66272;SDS011;58450;52.150;4.466;2024-01-30T08:01:19;14.65;;;8.60;;
66272;SDS011;58450;52.150;4.466;2024-01-30T08:05:48;15.63;;;9.02;;
66272;SDS011;58450;52.150;4.466;2024-01-30T08:10:16;16.30;;;9.15;;
66272;SDS011;58450;52.150;4.466;2024-01-30T08:14:45;17.70;;;8.50;;
66272;SDS011;58450;52.150;4.466;2024-01-30T08:19:15;18.10;;;9.57;;
66272;SDS011;58450;52.150;4.466;2024-01-30T08:23:44;16.50;;;9.77;;
66272;SDS011;58450;52.150;4.466;2024-01-30T08:28:13;18.80;;;9.52;;
66272;SDS011;58450;52.150;4.466;2024-01-30T08:32:42;19.65;;;10.10;;
66272;SDS011;58450;52.150;4.466;2024-01-30T08:37:12;16.40;;;9.95;;
66272;SDS011;58450;52.150;4.466;2024-01-30T08:41:41;22.25;;;10.73;;
66272;SDS011;58450;52.150;4.466;2024-01-30T08:46:10;16.30;;;9.88;;
66272;SDS011;58450;52.150;4.466;2024-01-30T08:50:39;18.77;;;10.00;;
66272;SDS011;58450;52.150;4.466;2024-01-30T08:55:10;18.65;;;9.50;;
66272;SDS011;58450;52.150;4.466;2024-01-30T08:59:38;15.43;;;9.82;;
66272;SDS011;58450;52.150;4.466;2024-01-30T09:04:07;22.33;;;11.80;;
66272;SDS011;58450;52.150;4.466;2024-01-30T09:08:36;21.25;;;11.73;;
66272;SDS011;58450;52.150;4.466;2024-01-30T09:13:06;22.90;;;12.32;;
66272;SDS011;58450;52.150;4.466;2024-01-30T09:17:35;20.92;;;10.20;;
66272;SDS011;58450;52.150;4.466;2024-01-30T09:22:03;20.63;;;7.80;;
66272;SDS011;58450;52.150;4.466;2024-01-30T09:26:32;13.23;;;5.80;;
66272;SDS011;58450;52.150;4.466;2024-01-30T09:31:02;19.95;;;4.75;;
66272;SDS011;58450;52.150;4.466;2024-01-30T09:35:31;13.00;;;4.30;;
66272;SDS011;58450;52.150;4.466;2024-01-30T09:40:01;12.75;;;3.33;;
66272;SDS011;58450;52.150;4.466;2024-01-30T09:44:33;8.98;;;2.72;;
66272;SDS011;58450;52.150;4.466;2024-01-30T09:49:06;11.55;;;2.70;;
66272;SDS011;58450;52.150;4.466;2024-01-30T09:53:35;12.13;;;3.00;;
66272;SDS011;58450;52.150;4.466;2024-01-30T09:58:05;7.05;;;1.85;;
66272;SDS011;58450;52.150;4.466;2024-01-30T10:02:34;9.13;;;2.25;;
66272;SDS011;58450;52.150;4.466;2024-01-30T10:07:05;6.57;;;2.13;;
66272;SDS011;58450;52.150;4.466;2024-01-30T10:11:36;8.32;;;1.60;;
66272;SDS011;58450;52.150;4.466;2024-01-30T10:16:05;5.40;;;1.40;;
66272;SDS011;58450;52.150;4.466;2024-01-30T10:20:35;4.13;;;1.25;;
66272;SDS011;58450;52.150;4.466;2024-01-30T10:25:06;5.93;;;1.48;;
66272;SDS011;58450;52.150;4.466;2024-01-30T10:29:37;5.93;;;1.27;;
66272;SDS011;58450;52.150;4.466;2024-01-30T10:34:05;6.93;;;1.52;;
66272;SDS011;58450;52.150;4.466;2024-01-30T10:38:34;6.97;;;1.50;;
66272;SDS011;58450;52.150;4.466;2024-01-30T10:43:07;6.72;;;1.35;;
66272;SDS011;58450;52.150;4.466;2024-01-30T10:47:43;8.00;;;1.50;;
66272;SDS011;58450;52.150;4.466;2024-01-30T10:52:13;9.82;;;1.58;;
66272;SDS011;58450;52.150;4.466;2024-01-30T10:56:43;7.55;;;1.77;;
66272;SDS011;58450;52.150;4.466;2024-01-30T11:01:13;12.00;;;1.50;;
66272;SDS011;58450;52.150;4.466;2024-01-30T11:05:43;10.60;;;1.73;;
66272;SDS011;58450;52.150;4.466;2024-01-30T11:10:19;6.43;;;1.58;;
66272;SDS011;58450;52.150;4.466;2024-01-30T11:14:47;7.25;;;1.80;;
66272;SDS011;58450;52.150;4.466;2024-01-30T11:19:23;9.32;;;1.90;;
66272;SDS011;58450;52.150;4.466;2024-01-30T11:23:52;7.10;;;1.75;;
66272;SDS011;58450;52.150;4.466;2024-01-30T11:28:23;10.07;;;1.80;;
66272;SDS011;58450;52.150;4.466;2024-01-30T11:33:00;8.68;;;1.70;;
66272;SDS011;58450;52.150;4.466;2024-01-30T11:37:30;13.00;;;2.05;;
66272;SDS011;58450;52.150;4.466;2024-01-30T11:41:59;11.38;;;2.13;;
66272;SDS011;58450;52.150;4.466;2024-01-30T11:46:29;11.48;;;1.92;;
66272;SDS011;58450;52.150;4.466;2024-01-30T11:50:58;12.07;;;1.98;;
66272;SDS011;58450;52.150;4.466;2024-01-30T11:55:28;14.20;;;2.45;;
66272;SDS011;58450;52.150;4.466;2024-01-30T11:59:57;8.63;;;2.15;;
66272;SDS011;58450;52.150;4.466;2024-01-30T12:04:27;11.82;;;2.10;;
66272;SDS011;58450;52.150;4.466;2024-01-30T12:08:57;11.13;;;2.10;;
66272;SDS011;58450;52.150;4.466;2024-01-30T12:13:29;15.02;;;2.97;;
66272;SDS011;58450;52.150;4.466;2024-01-30T12:18:04;11.77;;;2.28;;
66272;SDS011;58450;52.150;4.466;2024-01-30T12:22:35;10.13;;;2.47;;
66272;SDS011;58450;52.150;4.466;2024-01-30T12:27:04;16.27;;;2.65;;
66272;SDS011;58450;52.150;4.466;2024-01-30T12:31:35;13.80;;;2.60;;
66272;SDS011;58450;52.150;4.466;2024-01-30T12:36:04;13.75;;;2.55;;
66272;SDS011;58450;52.150;4.466;2024-01-30T12:40:33;11.60;;;2.53;;
66272;SDS011;58450;52.150;4.466;2024-01-30T12:45:02;11.30;;;2.30;;
66272;SDS011;58450;52.150;4.466;2024-01-30T12:49:34;8.57;;;2.50;;
66272;SDS011;58450;52.150;4.466;2024-01-30T12:54:05;11.68;;;2.28;;
66272;SDS011;58450;52.150;4.466;2024-01-30T12:58:34;8.90;;;2.80;;
66272;SDS011;58450;52.150;4.466;2024-01-30T13:03:03;9.32;;;3.78;;
66272;SDS011;58450;52.150;4.466;2024-01-30T13:07:34;12.48;;;3.10;;
66272;SDS011;58450;52.150;4.466;2024-01-30T13:12:03;13.77;;;3.28;;
66272;SDS011;58450;52.150;4.466;2024-01-30T13:16:32;12.18;;;3.38;;
66272;SDS011;58450;52.150;4.466;2024-01-30T13:21:01;9.30;;;3.63;;
66272;SDS011;58450;52.150;4.466;2024-01-30T13:25:31;14.57;;;3.85;;
66272;SDS011;58450;52.150;4.466;2024-01-30T13:30:01;11.85;;;4.13;;
66272;SDS011;58450;52.150;4.466;2024-01-30T13:34:30;12.52;;;3.78;;
66272;SDS011;58450;52.150;4.466;2024-01-30T13:38:58;8.38;;;3.22;;
66272;SDS011;58450;52.150;4.466;2024-01-30T13:43:29;10.07;;;4.13;;
66272;SDS011;58450;52.150;4.466;2024-01-30T13:47:58;10.00;;;3.55;;
66272;SDS011;58450;52.150;4.466;2024-01-30T13:52:28;14.10;;;4.35;;
66272;SDS011;58450;52.150;4.466;2024-01-30T13:56:57;12.77;;;4.05;;
66272;SDS011;58450;52.150;4.466;2024-01-30T14:01:28;11.95;;;4.35;;
66272;SDS011;58450;52.150;4.466;2024-01-30T14:05:57;16.67;;;4.40;;
66272;SDS011;58450;52.150;4.466;2024-01-30T14:10:26;7.88;;;3.00;;
66272;SDS011;58450;52.150;4.466;2024-01-30T14:14:55;8.85;;;3.63;;
66272;SDS011;58450;52.150;4.466;2024-01-30T14:19:26;10.27;;;3.70;;
66272;SDS011;58450;52.150;4.466;2024-01-30T14:23:55;9.95;;;3.90;;
66272;SDS011;58450;52.150;4.466;2024-01-30T14:28:24;10.70;;;3.85;;
66272;SDS011;58450;52.150;4.466;2024-01-30T14:32:53;10.23;;;4.10;;
66272;SDS011;58450;52.150;4.466;2024-01-30T14:37:23;11.15;;;4.55;;
66272;SDS011;58450;52.150;4.466;2024-01-30T14:41:51;10.40;;;4.80;;
66272;SDS011;58450;52.150;4.466;2024-01-30T14:46:20;14.20;;;5.10;;
66272;SDS011;58450;52.150;4.466;2024-01-30T14:50:49;14.05;;;5.20;;
66272;SDS011;58450;52.150;4.466;2024-01-30T14:55:19;10.35;;;5.00;;
66272;SDS011;58450;52.150;4.466;2024-01-30T14:59:48;10.90;;;5.30;;
66272;SDS011;58450;52.150;4.466;2024-01-30T15:04:16;13.63;;;6.20;;
66272;SDS011;58450;52.150;4.466;2024-01-30T15:08:48;18.42;;;7.15;;
66272;SDS011;58450;52.150;4.466;2024-01-30T15:13:18;16.08;;;6.55;;
66272;SDS011;58450;52.150;4.466;2024-01-30T15:17:47;14.80;;;6.00;;
66272;SDS011;58450;52.150;4.466;2024-01-30T15:22:17;17.08;;;6.10;;
66272;SDS011;58450;52.150;4.466;2024-01-30T15:26:50;17.35;;;6.47;;
66272;SDS011;58450;52.150;4.466;2024-01-30T15:31:20;17.33;;;5.82;;
66272;SDS011;58450;52.150;4.466;2024-01-30T15:35:49;17.17;;;6.57;;
66272;SDS011;58450;52.150;4.466;2024-01-30T15:40:17;16.23;;;6.03;;
66272;SDS011;58450;52.150;4.466;2024-01-30T15:44:47;18.33;;;6.30;;
66272;SDS011;58450;52.150;4.466;2024-01-30T15:49:17;17.50;;;4.55;;
66272;SDS011;58450;52.150;4.466;2024-01-30T15:53:46;17.25;;;3.90;;
66272;SDS011;58450;52.150;4.466;2024-01-30T15:58:15;14.20;;;4.45;;
66272;SDS011;58450;52.150;4.466;2024-01-30T16:02:44;15.05;;;3.47;;
66272;SDS011;58450;52.150;4.466;2024-01-30T16:07:14;19.90;;;3.42;;
66272;SDS011;58450;52.150;4.466;2024-01-30T16:11:43;18.80;;;3.13;;
66272;SDS011;58450;52.150;4.466;2024-01-30T16:16:12;10.55;;;2.35;;
66272;SDS011;58450;52.150;4.466;2024-01-30T16:20:41;17.73;;;2.60;;
66272;SDS011;58450;52.150;4.466;2024-01-30T16:25:11;12.50;;;2.45;;
66272;SDS011;58450;52.150;4.466;2024-01-30T16:29:40;12.98;;;2.13;;
66272;SDS011;58450;52.150;4.466;2024-01-30T16:34:09;13.60;;;2.20;;
66272;SDS011;58450;52.150;4.466;2024-01-30T16:38:37;14.30;;;2.80;;
66272;SDS011;58450;52.150;4.466;2024-01-30T16:43:07;15.43;;;2.35;;
66272;SDS011;58450;52.150;4.466;2024-01-30T16:47:36;15.05;;;2.30;;
66272;SDS011;58450;52.150;4.466;2024-01-30T16:52:05;16.08;;;2.40;;
66272;SDS011;58450;52.150;4.466;2024-01-30T16:56:34;14.52;;;2.35;;
66272;SDS011;58450;52.150;4.466;2024-01-30T17:01:04;16.80;;;2.42;;
66272;SDS011;58450;52.150;4.466;2024-01-30T17:05:33;16.20;;;2.47;;
66272;SDS011;58450;52.150;4.466;2024-01-30T17:10:02;13.15;;;2.58;;
66272;SDS011;58450;52.150;4.466;2024-01-30T17:14:31;14.98;;;2.17;;
66272;SDS011;58450;52.150;4.466;2024-01-30T17:19:01;19.92;;;2.42;;
66272;SDS011;58450;52.150;4.466;2024-01-30T17:23:30;17.80;;;2.53;;
66272;SDS011;58450;52.150;4.466;2024-01-30T17:27:59;16.60;;;3.22;;
66272;SDS011;58450;52.150;4.466;2024-01-30T17:32:28;18.55;;;2.30;;
66272;SDS011;58450;52.150;4.466;2024-01-30T17:36:59;17.77;;;2.63;;
66272;SDS011;58450;52.150;4.466;2024-01-30T17:41:27;17.02;;;1.95;;
66272;SDS011;58450;52.150;4.466;2024-01-30T17:45:56;17.42;;;2.35;;
66272;SDS011;58450;52.150;4.466;2024-01-30T17:50:25;20.67;;;2.65;;
66272;SDS011;58450;52.150;4.466;2024-01-30T17:54:55;18.73;;;3.05;;
66272;SDS011;58450;52.150;4.466;2024-01-30T17:59:23;20.77;;;2.40;;
66272;SDS011;58450;52.150;4.466;2024-01-30T18:03:52;12.55;;;2.20;;
66272;SDS011;58450;52.150;4.466;2024-01-30T18:08:21;14.15;;;1.98;;
66272;SDS011;58450;52.150;4.466;2024-01-30T18:12:52;14.82;;;2.63;;
66272;SDS011;58450;52.150;4.466;2024-01-30T18:17:20;15.02;;;2.10;;
66272;SDS011;58450;52.150;4.466;2024-01-30T18:21:49;15.95;;;2.20;;
66272;SDS011;58450;52.150;4.466;2024-01-30T18:26:18;15.95;;;2.38;;
66272;SDS011;58450;52.150;4.466;2024-01-30T18:30:48;15.05;;;2.22;;
66272;SDS011;58450;52.150;4.466;2024-01-30T18:35:17;16.35;;;1.90;;
66272;SDS011;58450;52.150;4.466;2024-01-30T18:39:47;12.95;;;1.95;;
66272;SDS011;58450;52.150;4.466;2024-01-30T18:44:15;14.07;;;2.50;;
66272;SDS011;58450;52.150;4.466;2024-01-30T18:48:48;14.05;;;2.42;;
66272;SDS011;58450;52.150;4.466;2024-01-30T18:53:17;11.80;;;2.00;;
66272;SDS011;58450;52.150;4.466;2024-01-30T18:57:46;14.43;;;2.10;;
66272;SDS011;58450;52.150;4.466;2024-01-30T19:02:15;13.40;;;1.98;;
66272;SDS011;58450;52.150;4.466;2024-01-30T19:06:45;12.90;;;1.63;;
66272;SDS011;58450;52.150;4.466;2024-01-30T19:11:17;12.20;;;1.63;;
66272;SDS011;58450;52.150;4.466;2024-01-30T19:15:45;12.65;;;1.70;;
66272;SDS011;58450;52.150;4.466;2024-01-30T19:20:14;14.13;;;2.15;;
66272;SDS011;58450;52.150;4.466;2024-01-30T19:24:44;12.38;;;1.92;;
66272;SDS011;58450;52.150;4.466;2024-01-30T19:29:13;12.85;;;2.08;;
66272;SDS011;58450;52.150;4.466;2024-01-30T19:33:42;13.90;;;1.40;;
66272;SDS011;58450;52.150;4.466;2024-01-30T19:38:11;10.48;;;1.63;;
66272;SDS011;58450;52.150;4.466;2024-01-30T19:42:41;8.05;;;1.58;;
66272;SDS011;58450;52.150;4.466;2024-01-30T19:47:10;8.05;;;1.50;;
66272;SDS011;58450;52.150;4.466;2024-01-30T19:51:39;7.90;;;1.50;;
66272;SDS011;58450;52.150;4.466;2024-01-30T19:56:07;4.72;;;1.40;;
66272;SDS011;58450;52.150;4.466;2024-01-30T20:00:38;5.25;;;1.20;;
66272;SDS011;58450;52.150;4.466;2024-01-30T20:05:07;8.82;;;0.95;;
66272;SDS011;58450;52.150;4.466;2024-01-30T20:09:35;5.20;;;1.20;;
66272;SDS011;58450;52.150;4.466;2024-01-30T20:14:04;5.78;;;1.20;;
66272;SDS011;58450;52.150;4.466;2024-01-30T20:18:35;5.90;;;1.00;;
66272;SDS011;58450;52.150;4.466;2024-01-30T20:23:06;8.48;;;1.17;;
66272;SDS011;58450;52.150;4.466;2024-01-30T20:27:38;7.07;;;1.13;;
66272;SDS011;58450;52.150;4.466;2024-01-30T20:32:06;7.03;;;1.45;;
66272;SDS011;58450;52.150;4.466;2024-01-30T20:36:36;7.22;;;1.50;;
66272;SDS011;58450;52.150;4.466;2024-01-30T20:41:06;4.47;;;1.20;;
66272;SDS011;58450;52.150;4.466;2024-01-30T20:45:35;3.38;;;0.80;;
66272;SDS011;58450;52.150;4.466;2024-01-30T20:50:04;4.75;;;1.05;;
66272;SDS011;58450;52.150;4.466;2024-01-30T20:54:34;2.78;;;0.88;;
66272;SDS011;58450;52.150;4.466;2024-01-30T20:59:03;5.97;;;1.20;;
66272;SDS011;58450;52.150;4.466;2024-01-30T21:03:33;5.95;;;1.20;;
66272;SDS011;58450;52.150;4.466;2024-01-30T21:08:02;3.70;;;0.70;;
66272;SDS011;58450;52.150;4.466;2024-01-30T21:12:35;3.20;;;0.80;;
66272;SDS011;58450;52.150;4.466;2024-01-30T21:17:06;6.05;;;0.90;;
66272;SDS011;58450;52.150;4.466;2024-01-30T21:21:36;4.90;;;1.55;;
66272;SDS011;58450;52.150;4.466;2024-01-30T21:26:05;7.28;;;1.00;;
66272;SDS011;58450;52.150;4.466;2024-01-30T21:30:35;2.25;;;0.70;;
66272;SDS011;58450;52.150;4.466;2024-01-30T21:35:04;4.57;;;0.80;;
66272;SDS011;58450;52.150;4.466;2024-01-30T21:39:34;2.92;;;0.70;;
66272;SDS011;58450;52.150;4.466;2024-01-30T21:44:02;3.17;;;0.77;;
66272;SDS011;58450;52.150;4.466;2024-01-30T21:48:34;3.40;;;0.88;;
66272;SDS011;58450;52.150;4.466;2024-01-30T21:53:02;2.40;;;0.75;;
66272;SDS011;58450;52.150;4.466;2024-01-30T21:57:31;4.88;;;1.00;;
66272;SDS011;58450;52.150;4.466;2024-01-30T22:02:00;4.00;;;0.65;;
66272;SDS011;58450;52.150;4.466;2024-01-30T22:06:30;2.63;;;0.70;;
66272;SDS011;58450;52.150;4.466;2024-01-30T22:10:59;4.82;;;0.68;;
66272;SDS011;58450;52.150;4.466;2024-01-30T22:15:27;2.78;;;0.73;;
66272;SDS011;58450;52.150;4.466;2024-01-30T22:19:56;3.08;;;1.13;;
66272;SDS011;58450;52.150;4.466;2024-01-30T22:24:26;5.35;;;1.00;;
66272;SDS011;58450;52.150;4.466;2024-01-30T22:28:55;5.13;;;1.00;;
66272;SDS011;58450;52.150;4.466;2024-01-30T22:33:23;4.70;;;0.82;;
66272;SDS011;58450;52.150;4.466;2024-01-30T22:37:52;3.75;;;0.80;;
66272;SDS011;58450;52.150;4.466;2024-01-30T22:42:22;2.10;;;0.80;;
66272;SDS011;58450;52.150;4.466;2024-01-30T22:46:51;7.50;;;0.90;;
66272;SDS011;58450;52.150;4.466;2024-01-30T22:51:20;5.63;;;1.23;;
66272;SDS011;58450;52.150;4.466;2024-01-30T22:55:48;5.30;;;0.70;;
66272;SDS011;58450;52.150;4.466;2024-01-30T23:00:19;4.63;;;0.80;;
66272;SDS011;58450;52.150;4.466;2024-01-30T23:04:48;3.88;;;0.77;;
66272;SDS011;58450;52.150;4.466;2024-01-30T23:09:17;2.90;;;0.65;;
66272;SDS011;58450;52.150;4.466;2024-01-30T23:13:46;3.10;;;0.82;;
66272;SDS011;58450;52.150;4.466;2024-01-30T23:18:16;5.03;;;0.80;;
66272;SDS011;58450;52.150;4.466;2024-01-30T23:22:45;2.60;;;1.05;;
66272;SDS011;58450;52.150;4.466;2024-01-30T23:27:15;5.05;;;0.90;;
66272;SDS011;58450;52.150;4.466;2024-01-30T23:31:43;3.22;;;0.88;;
66272;SDS011;58450;52.150;4.466;2024-01-30T23:36:13;5.72;;;0.90;;
66272;SDS011;58450;52.150;4.466;2024-01-30T23:40:42;4.63;;;1.05;;
66272;SDS011;58450;52.150;4.466;2024-01-30T23:45:11;5.22;;;1.10;;
66272;SDS011;58450;52.150;4.466;2024-01-30T23:49:40;4.60;;;1.05;;
66272;SDS011;58450;52.150;4.466;2024-01-30T23:54:10;6.50;;;1.17;;
66272;SDS011;58450;52.150;4.466;2024-01-30T23:58:39;4.85;;;1.10;;
